Time;durP1;ratioP1;P1;durP2;ratioP2;P2;SDS_P1;SDS_P2;PMS_P1;PMS_P2;Temp;Humidity;BMP_temperature;BMP_pressure;BME280_temperature;BME280_humidity;BME280_pressure;Samples;Min_cycle;Max_cycle;Signal;HPM_P1;HPM_P2
2023/03/12 00:00:32;;;;;;;;;;;19.70;31.90;;;;;;8333183;28;19921;-46
2023/03/12 00:04:34;;;;;;;;;;;19.70;31.90;;;;;;8332576;28;19918;-46
2023/03/12 00:08:35;;;;;;;;;;;19.60;31.80;;;;;;8332905;28;19983;-45
2023/03/12 00:12:35;;;;;;;;;;;19.70;31.90;;;;;;8332794;28;19921;-45
2023/03/12 00:16:36;;;;;;;;;;;19.60;31.90;;;;;;8332074;28;19929;-46
2023/03/12 00:20:36;;;;;;;;;;;19.60;31.90;;;;;;8332645;28;19919;-45
2023/03/12 00:24:37;;;;;;;;;;;19.60;31.90;;;;;;8331795;28;19917;-45
2023/03/12 00:28:37;;;;;;;;;;;19.60;31.90;;;;;;8331513;28;19932;-45
2023/03/12 00:32:38;;;;;;;;;;;19.60;31.90;;;;;;8332120;28;20419;-45
2023/03/12 00:36:40;;;;;;;;;;;19.60;31.90;;;;;;8332498;28;20004;-45
2023/03/12 00:40:40;;;;;;;;;;;19.60;32.00;;;;;;8331600;28;19962;-45
2023/03/12 00:44:42;;;;;;;;;;;19.50;32.00;;;;;;8331610;28;19917;-45
2023/03/12 00:48:43;;;;;;;;;;;19.60;32.00;;;;;;8331759;28;20399;-45
2023/03/12 00:52:43;;;;;;;;;;;19.50;32.00;;;;;;8331099;28;20004;-47
2023/03/12 00:56:45;;;;;;;;;;;19.50;32.00;;;;;;8331318;28;19925;-46
2023/03/12 01:00:46;;;;;;;;;;;19.50;32.00;;;;;;8331496;28;20366;-44
2023/03/12 01:04:46;;;;;;;;;;;19.40;32.00;;;;;;8330637;28;19928;-45
2023/03/12 01:08:46;;;;;;;;;;;19.40;32.50;;;;;;8330993;28;19917;-46
2023/03/12 01:12:47;;;;;;;;;;;19.40;32.00;;;;;;8331033;28;19944;-46
2023/03/12 01:16:47;;;;;;;;;;;19.40;32.00;;;;;;8312559;28;19917;-46
2023/03/12 01:20:48;;;;;;;;;;;19.40;32.00;;;;;;8330930;28;19935;-46
2023/03/12 01:24:48;;;;;;;;;;;19.40;32.00;;;;;;8330615;28;19924;-46
2023/03/12 01:28:49;;;;;;;;;;;19.40;32.10;;;;;;8329946;28;19921;-46
2023/03/12 01:32:52;;;;;;;;;;;19.30;32.00;;;;;;8330793;28;20043;-46
2023/03/12 01:36:54;;;;;;;;;;;19.40;32.00;;;;;;8329541;28;20432;-46
2023/03/12 01:40:54;;;;;;;;;;;19.30;32.00;;;;;;8330022;28;19964;-46
2023/03/12 01:44:56;;;;;;;;;;;19.30;32.00;;;;;;8329992;28;19917;-47
2023/03/12 01:49:15;;;;;;;;;;;19.30;32.00;;;;;;8330185;28;19917;-46
2023/03/12 01:53:16;;;;;;;;;;;19.30;32.10;;;;;;8329510;28;20405;-46
2023/03/12 01:57:25;;;;;;;;;;;19.30;32.10;;;;;;8330067;28;19918;-46
2023/03/12 02:01:26;;;;;;;;;;;19.30;32.10;;;;;;8329879;28;20402;-46
2023/03/12 02:05:32;;;;;;;;;;;19.30;32.10;;;;;;8318667;28;19926;-48
2023/03/12 02:09:33;;;;;;;;;;;19.20;32.10;;;;;;8320021;28;19917;-46
2023/03/12 02:13:34;;;;;;;;;;;19.20;32.10;;;;;;8329316;28;19917;-46
2023/03/12 02:17:35;;;;;;;;;;;19.20;32.10;;;;;;8329653;28;19967;-46
2023/03/12 02:21:37;;;;;;;;;;;19.20;32.10;;;;;;8330056;28;19913;-46
2023/03/12 02:25:48;;;;;;;;;;;19.20;32.10;;;;;;8329138;28;19925;-45
2023/03/12 02:29:49;;;;;;;;;;;19.20;32.10;;;;;;8335112;28;19917;-48
2023/03/12 02:33:51;;;;;;;;;;;19.20;32.20;;;;;;8329520;28;19999;-47
2023/03/12 02:37:53;;;;;;;;;;;19.20;32.20;;;;;;8329003;28;19921;-46
2023/03/12 02:41:56;;;;;;;;;;;19.20;32.20;;;;;;8311979;28;19913;-47
2023/03/12 02:45:57;;;;;;;;;;;19.10;32.70;;;;;;8329406;28;20400;-46
2023/03/12 02:49:57;;;;;;;;;;;19.10;32.10;;;;;;8334286;28;19924;-45
2023/03/12 02:53:57;;;;;;;;;;;19.10;32.20;;;;;;8335212;28;19917;-47
2023/03/12 02:57:58;;;;;;;;;;;19.10;32.20;;;;;;8334996;28;19917;-46
2023/03/12 03:01:59;;;;;;;;;;;19.10;32.20;;;;;;8334877;28;20000;-47
2023/03/12 03:05:59;;;;;;;;;;;19.10;32.20;;;;;;8334767;28;19925;-46
2023/03/12 03:10:03;;;;;;;;;;;19.10;32.20;;;;;;8334660;28;20298;-46
2023/03/12 03:14:05;;;;;;;;;;;19.10;32.20;;;;;;8334061;28;19917;-47
2023/03/12 03:18:06;;;;;;;;;;;19.10;32.20;;;;;;8334883;28;19967;-47
2023/03/12 03:22:06;;;;;;;;;;;19.00;32.20;;;;;;8335038;28;19949;-46
2023/03/12 03:26:07;;;;;;;;;;;19.00;32.30;;;;;;8333708;28;19961;-46
2023/03/12 03:30:08;;;;;;;;;;;19.00;32.30;;;;;;8334084;28;19971;-46
2023/03/12 03:34:08;;;;;;;;;;;19.00;32.30;;;;;;8333520;28;19920;-47
2023/03/12 03:38:09;;;;;;;;;;;19.00;32.30;;;;;;8333323;28;19924;-46
2023/03/12 03:42:09;;;;;;;;;;;19.00;32.30;;;;;;8334314;28;19913;-46
2023/03/12 03:46:11;;;;;;;;;;;19.00;32.30;;;;;;8333579;28;20020;-46
2023/03/12 03:50:12;;;;;;;;;;;19.00;32.30;;;;;;8333106;28;19921;-46
2023/03/12 03:54:12;;;;;;;;;;;18.90;32.30;;;;;;8333285;28;19920;-46
2023/03/12 03:58:13;;;;;;;;;;;18.90;32.30;;;;;;8332428;28;20374;-46
2023/03/12 04:02:13;;;;;;;;;;;18.90;32.30;;;;;;8332764;28;19990;-47
2023/03/12 04:06:14;;;;;;;;;;;18.90;32.30;;;;;;8332839;28;20537;-47
2023/03/12 04:10:14;;;;;;;;;;;18.90;32.30;;;;;;8332912;28;20368;-48
2023/03/12 04:14:15;;;;;;;;;;;18.90;32.30;;;;;;8332298;28;19921;-47
2023/03/12 04:18:15;;;;;;;;;;;18.90;32.30;;;;;;8332497;28;19922;-46
2023/03/12 04:22:15;;;;;;;;;;;18.90;32.30;;;;;;8332816;28;20321;-46
2023/03/12 04:26:16;;;;;;;;;;;18.90;32.30;;;;;;8331768;28;19929;-46
2023/03/12 04:30:16;;;;;;;;;;;18.90;32.30;;;;;;8332261;28;19936;-48
2023/03/12 04:34:17;;;;;;;;;;;18.90;32.30;;;;;;8331587;28;19975;-48
2023/03/12 04:38:18;;;;;;;;;;;18.90;32.30;;;;;;8314403;28;19928;-48
2023/03/12 04:42:19;;;;;;;;;;;18.90;32.30;;;;;;8332356;28;19913;-46
2023/03/12 04:46:19;;;;;;;;;;;18.90;32.80;;;;;;8331228;28;19925;-46
2023/03/12 04:50:20;;;;;;;;;;;18.90;32.20;;;;;;8331600;28;20337;-46
2023/03/12 04:54:21;;;;;;;;;;;18.90;32.20;;;;;;8331289;28;19979;-46
2023/03/12 04:58:21;;;;;;;;;;;18.90;32.20;;;;;;8330721;28;20259;-46
2023/03/12 05:02:22;;;;;;;;;;;18.90;32.20;;;;;;8331341;28;19921;-45
2023/03/12 05:06:23;;;;;;;;;;;18.90;32.20;;;;;;8330827;28;20405;-46
2023/03/12 05:10:24;;;;;;;;;;;18.90;32.30;;;;;;8322754;28;19913;-46
2023/03/12 05:14:24;;;;;;;;;;;19.00;32.30;;;;;;8330815;28;19924;-47
2023/03/12 05:18:25;;;;;;;;;;;19.10;32.20;;;;;;8330557;28;19983;-48
2023/03/12 05:22:26;;;;;;;;;;;19.20;32.10;;;;;;8330380;28;20054;-47
2023/03/12 05:26:30;;;;;;;;;;;19.30;32.10;;;;;;8330709;28;19925;-47
2023/03/12 05:30:30;;;;;;;;;;;19.40;32.00;;;;;;8330267;28;19921;-47
2023/03/12 05:34:31;;;;;;;;;;;19.50;32.00;;;;;;8329497;28;19944;-48
2023/03/12 05:38:31;;;;;;;;;;;19.60;32.00;;;;;;8329947;28;19941;-47
2023/03/12 05:42:31;;;;;;;;;;;19.70;31.90;;;;;;8329943;28;19913;-47
2023/03/12 05:46:32;;;;;;;;;;;19.70;31.90;;;;;;8329210;28;19925;-48
2023/03/12 05:50:32;;;;;;;;;;;19.80;31.90;;;;;;8329823;28;19924;-46
2023/03/12 05:54:33;;;;;;;;;;;19.80;31.90;;;;;;8329597;28;19928;-46
2023/03/12 05:58:34;;;;;;;;;;;19.90;32.00;;;;;;8329371;28;19998;-46
2023/03/12 06:02:34;;;;;;;;;;;19.90;31.80;;;;;;8330457;28;19925;-47
2023/03/12 06:06:35;;;;;;;;;;;20.00;31.90;;;;;;8330041;28;20348;-47
2023/03/12 06:10:36;;;;;;;;;;;20.00;31.90;;;;;;8329175;28;19913;-46
2023/03/12 06:14:37;;;;;;;;;;;20.00;31.90;;;;;;8330084;28;19913;-47
2023/03/12 06:18:37;;;;;;;;;;;20.00;31.90;;;;;;8329561;28;19971;-46
2023/03/12 06:22:38;;;;;;;;;;;20.00;31.90;;;;;;8331505;28;19921;-47
2023/03/12 06:26:39;;;;;;;;;;;20.00;31.80;;;;;;8335610;28;19929;-46
2023/03/12 06:30:39;;;;;;;;;;;20.00;31.90;;;;;;8335851;28;19920;-46
2023/03/12 06:34:40;;;;;;;;;;;19.90;31.90;;;;;;8335225;28;19952;-46
2023/03/12 06:38:41;;;;;;;;;;;19.90;31.90;;;;;;8335534;28;19917;-46
2023/03/12 06:42:41;;;;;;;;;;;19.90;31.90;;;;;;8335941;28;19917;-47
2023/03/12 06:46:43;;;;;;;;;;;19.90;32.00;;;;;;8334723;28;20383;-45
2023/03/12 06:50:43;;;;;;;;;;;19.90;32.00;;;;;;8335552;28;19916;-46
2023/03/12 06:54:44;;;;;;;;;;;19.90;32.10;;;;;;8335062;28;20337;-46
2023/03/12 06:58:44;;;;;;;;;;;19.90;32.10;;;;;;8334590;28;19917;-47
2023/03/12 07:02:44;;;;;;;;;;;20.00;32.00;;;;;;8334907;28;20382;-45
2023/03/12 07:06:49;;;;;;;;;;;20.00;32.00;;;;;;8334644;28;20344;-47
2023/03/12 07:10:49;;;;;;;;;;;20.00;32.00;;;;;;8334238;28;20448;-47
2023/03/12 07:14:50;;;;;;;;;;;20.10;32.00;;;;;;8334704;28;19913;-48
2023/03/12 07:18:50;;;;;;;;;;;20.10;32.10;;;;;;8334637;28;19923;-46
2023/03/12 07:22:51;;;;;;;;;;;20.20;32.00;;;;;;8334126;28;19924;-47
2023/03/12 07:26:52;;;;;;;;;;;20.20;32.10;;;;;;8334099;28;20413;-47
2023/03/12 07:30:52;;;;;;;;;;;20.20;32.00;;;;;;8334040;28;19913;-47
2023/03/12 07:34:52;;;;;;;;;;;20.20;31.90;;;;;;8333435;28;19963;-47
2023/03/12 07:38:53;;;;;;;;;;;20.20;31.90;;;;;;8334028;28;19959;-46
2023/03/12 07:42:53;;;;;;;;;;;20.20;31.90;;;;;;8333616;28;19940;-47
2023/03/12 07:46:54;;;;;;;;;;;20.30;32.00;;;;;;8333150;28;19932;-47
2023/03/12 07:50:54;;;;;;;;;;;20.20;31.80;;;;;;8333294;28;19995;-47
2023/03/12 07:54:55;;;;;;;;;;;20.20;31.90;;;;;;8333138;28;19940;-47
2023/03/12 07:58:55;;;;;;;;;;;20.20;32.00;;;;;;8337793;28;20404;-46
2023/03/12 08:02:56;;;;;;;;;;;20.20;32.10;;;;;;8335118;28;19921;-47
2023/03/12 08:06:56;;;;;;;;;;;20.10;32.10;;;;;;8333170;28;19925;-46
2023/03/12 08:10:58;;;;;;;;;;;20.10;32.30;;;;;;8331236;28;19924;-46
2023/03/12 08:14:58;;;;;;;;;;;20.10;32.20;;;;;;8333002;28;20321;-46
2023/03/12 08:18:59;;;;;;;;;;;20.00;32.20;;;;;;8332690;28;19972;-47
2023/03/12 08:22:59;;;;;;;;;;;20.00;32.20;;;;;;8331864;28;20362;-47
2023/03/12 08:27:00;;;;;;;;;;;20.00;32.30;;;;;;8332566;28;19931;-47
2023/03/12 08:31:01;;;;;;;;;;;20.00;32.30;;;;;;8332057;28;19913;-48
2023/03/12 08:35:04;;;;;;;;;;;20.00;32.30;;;;;;8331429;28;19929;-46
2023/03/12 08:39:04;;;;;;;;;;;20.10;32.20;;;;;;8332106;28;20239;-47
2023/03/12 08:43:06;;;;;;;;;;;20.20;32.10;;;;;;8331753;28;19921;-46
2023/03/12 08:47:06;;;;;;;;;;;20.20;32.10;;;;;;8330607;28;19971;-46
2023/03/12 08:51:07;;;;;;;;;;;20.30;32.10;;;;;;8331631;28;19917;-47
2023/03/12 08:55:08;;;;;;;;;;;20.30;32.10;;;;;;8331287;28;20378;-47
2023/03/12 08:59:09;;;;;;;;;;;20.40;32.10;;;;;;8330821;28;19917;-47
2023/03/12 09:03:13;;;;;;;;;;;20.40;32.10;;;;;;8331190;28;19921;-46
2023/03/12 09:07:14;;;;;;;;;;;20.40;32.00;;;;;;8331155;28;19944;-47
2023/03/12 09:11:14;;;;;;;;;;;20.50;32.10;;;;;;8330480;28;19917;-47
2023/03/12 09:15:15;;;;;;;;;;;20.50;32.00;;;;;;8330741;28;19996;-47
2023/03/12 09:19:15;;;;;;;;;;;20.50;32.00;;;;;;8330937;28;19928;-47
2023/03/12 09:23:16;;;;;;;;;;;20.40;32.00;;;;;;8329981;28;19924;-45
2023/03/12 09:27:16;;;;;;;;;;;20.40;32.10;;;;;;8330717;28;19971;-47
2023/03/12 09:31:17;;;;;;;;;;;20.40;32.10;;;;;;8330372;28;20347;-46
2023/03/12 09:35:17;;;;;;;;;;;20.40;32.10;;;;;;8330023;28;19921;-46
2023/03/12 09:39:19;;;;;;;;;;;20.30;32.20;;;;;;8330564;28;19925;-47
2023/03/12 09:43:20;;;;;;;;;;;20.30;32.20;;;;;;8329608;28;19917;-46
2023/03/12 09:47:25;;;;;;;;;;;20.30;32.20;;;;;;8330066;28;20050;-47
2023/03/12 09:51:28;;;;;;;;;;;20.20;32.30;;;;;;8330157;28;19996;-47
2023/03/12 09:55:35;;;;;;;;;;;20.20;32.40;;;;;;8329481;28;20333;-46
2023/03/12 09:59:36;;;;;;;;;;;20.20;32.30;;;;;;8335442;28;19923;-47
2023/03/12 10:03:55;;;;;;;;;;;20.20;32.30;;;;;;8336782;28;20375;-47
2023/03/12 10:07:59;;;;;;;;;;;20.20;32.40;;;;;;8335960;28;19975;-43
2023/03/12 10:12:04;;;;;;;;;;;20.30;32.40;;;;;;8336656;28;19917;-46
2023/03/12 10:16:24;;;;;;;;;;;20.40;32.40;;;;;;8336181;28;20020;-46
2023/03/12 10:20:54;;;;;;;;;;;20.40;32.40;;;;;;8335853;28;19940;-46
2023/03/12 10:24:57;;;;;;;;;;;20.50;32.30;;;;;;8265529;28;20397;-46
2023/03/12 10:29:01;;;;;;;;;;;20.50;32.30;;;;;;8335377;28;19929;-46
2023/03/12 10:33:06;;;;;;;;;;;20.60;32.30;;;;;;8335725;28;20015;-46
2023/03/12 10:37:18;;;;;;;;;;;20.60;32.30;;;;;;8335713;28;19913;-46
2023/03/12 10:41:20;;;;;;;;;;;20.60;32.20;;;;;;8335119;28;19924;-46
2023/03/12 10:45:20;;;;;;;;;;;20.70;32.30;;;;;;8335471;28;19917;-46
2023/03/12 10:49:22;;;;;;;;;;;20.70;32.30;;;;;;8335093;28;20386;-46
2023/03/12 10:53:25;;;;;;;;;;;20.70;32.40;;;;;;8335480;28;20378;-46
2023/03/12 10:57:37;;;;;;;;;;;20.70;32.40;;;;;;8335315;28;19928;-46
2023/03/12 11:01:46;;;;;;;;;;;20.70;32.40;;;;;;8334674;28;19978;-47
2023/03/12 11:05:48;;;;;;;;;;;20.70;32.50;;;;;;8334071;28;19921;-46
2023/03/12 11:10:02;;;;;;;;;;;20.70;32.50;;;;;;8334137;28;19964;-48
2023/03/12 11:14:16;;;;;;;;;;;20.60;32.50;;;;;;8334136;28;19956;-45
2023/03/12 11:18:17;;;;;;;;;;;20.60;32.60;;;;;;8334553;28;19960;-47
2023/03/12 11:22:32;;;;;;;;;;;20.60;32.70;;;;;;8333716;28;19956;-44
2023/03/12 11:26:32;;;;;;;;;;;20.60;32.70;;;;;;8334163;28;19921;-48
2023/03/12 11:30:37;;;;;;;;;;;20.60;32.70;;;;;;8333999;28;20303;-48
2023/03/12 11:34:38;;;;;;;;;;;20.60;32.80;;;;;;8333542;28;19926;-46
2023/03/12 11:38:42;;;;;;;;;;;20.60;32.80;;;;;;8333828;28;20275;-50
2023/03/12 11:42:43;;;;;;;;;;;20.60;32.80;;;;;;8333753;28;20015;-45
2023/03/12 11:46:52;;;;;;;;;;;20.60;32.80;;;;;;8333066;28;19925;-47
2023/03/12 11:51:02;;;;;;;;;;;20.70;32.80;;;;;;8333456;28;20420;-47
2023/03/12 11:55:15;;;;;;;;;;;20.70;32.80;;;;;;8333692;28;19917;-47
2023/03/12 11:59:36;;;;;;;;;;;20.80;32.90;;;;;;8332686;28;20404;-46
2023/03/12 12:03:39;;;;;;;;;;;20.90;33.00;;;;;;8332272;28;19921;-47
2023/03/12 12:07:40;;;;;;;;;;;20.90;32.90;;;;;;8332350;28;20000;-48
2023/03/12 12:11:49;;;;;;;;;;;20.90;32.90;;;;;;8332917;28;20385;-47
2023/03/12 12:15:58;;;;;;;;;;;20.90;32.90;;;;;;8332800;28;19940;-44
2023/03/12 12:20:20;;;;;;;;;;;21.00;33.00;;;;;;8331305;28;19944;-46
2023/03/12 12:24:20;;;;;;;;;;;20.90;33.00;;;;;;8332420;28;19924;-46
2023/03/12 12:28:27;;;;;;;;;;;21.00;33.00;;;;;;8331782;28;19921;-47
2023/03/12 12:32:34;;;;;;;;;;;20.90;33.00;;;;;;8332357;28;20298;-46
2023/03/12 12:36:35;;;;;;;;;;;20.90;33.00;;;;;;8332709;28;19917;-46
2023/03/12 12:40:48;;;;;;;;;;;20.90;33.10;;;;;;8331564;28;19921;-46
2023/03/12 12:44:51;;;;;;;;;;;20.90;33.10;;;;;;8331804;28;19917;-46
2023/03/12 12:48:52;;;;;;;;;;;20.90;33.20;;;;;;8331466;28;20295;-45
2023/03/12 12:52:59;;;;;;;;;;;20.90;33.20;;;;;;8331062;28;19917;-46
2023/03/12 12:57:04;;;;;;;;;;;20.90;33.20;;;;;;8331386;28;19913;-47
2023/03/12 13:01:04;;;;;;;;;;;20.80;33.20;;;;;;8331460;28;20377;-45
2023/03/12 13:05:17;;;;;;;;;;;20.80;33.20;;;;;;8330677;28;19986;-45
2023/03/12 13:09:19;;;;;;;;;;;20.80;33.20;;;;;;8331203;28;19936;-46
2023/03/12 13:13:22;;;;;;;;;;;20.80;33.30;;;;;;8329785;28;21371;-46
2023/03/12 13:17:23;;;;;;;;;;;20.80;33.30;;;;;;8330890;28;20370;-46
2023/03/12 13:21:42;;;;;;;;;;;20.80;33.30;;;;;;8330633;28;19920;-46
2023/03/12 13:25:57;;;;;;;;;;;20.90;33.30;;;;;;8330276;28;19966;-47
2023/03/12 13:30:00;;;;;;;;;;;20.90;33.30;;;;;;8330412;28;19917;-46
2023/03/12 13:34:16;;;;;;;;;;;20.90;33.20;;;;;;8330406;28;19917;-46
2023/03/12 13:38:32;;;;;;;;;;;21.00;33.20;;;;;;8329734;28;19921;-45
2023/03/12 13:42:37;;;;;;;;;;;21.00;33.20;;;;;;8330419;28;19956;-46
2023/03/12 13:46:38;;;;;;;;;;;21.10;33.10;;;;;;8329537;28;19929;-46
2023/03/12 13:50:46;;;;;;;;;;;21.10;33.20;;;;;;8330578;28;19917;-46
2023/03/12 13:54:49;;;;;;;;;;;21.10;33.10;;;;;;8329998;28;19921;-45
2023/03/12 13:58:57;;;;;;;;;;;21.10;33.60;;;;;;8329546;28;19917;-47
2023/03/12 14:02:59;;;;;;;;;;;21.10;33.10;;;;;;8329947;28;20449;-47
2023/03/12 14:07:05;;;;;;;;;;;21.10;33.20;;;;;;8329887;28;19925;-47
2023/03/12 14:11:20;;;;;;;;;;;21.10;33.10;;;;;;8304173;28;19940;-46
2023/03/12 14:15:24;;;;;;;;;;;21.10;33.10;;;;;;8328098;28;19917;-47
2023/03/12 14:19:26;;;;;;;;;;;21.00;33.10;;;;;;8329065;28;19922;-46
2023/03/12 14:23:28;;;;;;;;;;;21.00;33.10;;;;;;8329493;28;19928;-46
2023/03/12 14:27:30;;;;;;;;;;;21.00;33.10;;;;;;8329648;28;19928;-46
2023/03/12 14:31:31;;;;;;;;;;;21.00;33.10;;;;;;8329219;28;19936;-46
2023/03/12 14:35:40;;;;;;;;;;;21.00;33.10;;;;;;8329802;28;20004;-46
2023/03/12 14:39:43;;;;;;;;;;;21.00;33.10;;;;;;8329387;28;19943;-47
2023/03/12 14:43:45;;;;;;;;;;;21.00;33.10;;;;;;8331028;28;19917;-47
2023/03/12 14:47:53;;;;;;;;;;;20.90;33.00;;;;;;8335783;28;19948;-47
2023/03/12 14:51:54;;;;;;;;;;;20.90;33.00;;;;;;8335496;28;19913;-46
2023/03/12 14:56:01;;;;;;;;;;;20.90;33.10;;;;;;8335085;28;20350;-46
2023/03/12 15:00:01;;;;;;;;;;;20.90;33.00;;;;;;8335012;28;19917;-47
2023/03/12 15:04:04;;;;;;;;;;;20.90;33.00;;;;;;8334931;28;20434;-47
2023/03/12 15:08:05;;;;;;;;;;;21.00;33.00;;;;;;8334280;28;19931;-46
2023/03/12 15:12:06;;;;;;;;;;;21.00;33.00;;;;;;8334576;28;19997;-47
2023/03/12 15:16:07;;;;;;;;;;;21.00;32.90;;;;;;8334735;28;19913;-46
2023/03/12 15:20:14;;;;;;;;;;;21.10;32.90;;;;;;8333885;28;19921;-46
2023/03/12 15:24:14;;;;;;;;;;;21.10;32.80;;;;;;8334349;28;19917;-47
2023/03/12 15:28:17;;;;;;;;;;;21.20;32.80;;;;;;8334333;28;19976;-48
2023/03/12 15:32:23;;;;;;;;;;;21.20;32.80;;;;;;8334053;28;19944;-47
2023/03/12 15:36:25;;;;;;;;;;;21.20;32.80;;;;;;8334317;28;20302;-45
2023/03/12 15:40:26;;;;;;;;;;;21.20;32.80;;;;;;8333334;28;19932;-45
2023/03/12 15:44:30;;;;;;;;;;;21.20;32.80;;;;;;8333726;28;19925;-47
2023/03/12 15:48:38;;;;;;;;;;;21.20;32.80;;;;;;8333436;28;19925;-46
2023/03/12 15:52:38;;;;;;;;;;;21.20;32.80;;;;;;8333138;28;19917;-47
2023/03/12 15:56:39;;;;;;;;;;;21.20;32.80;;;;;;8332222;28;20059;-46
2023/03/12 16:00:43;;;;;;;;;;;21.20;32.80;;;;;;8333109;28;20267;-46
2023/03/12 16:04:44;;;;;;;;;;;21.10;32.80;;;;;;8332591;28;20020;-46
2023/03/12 16:08:45;;;;;;;;;;;21.10;32.90;;;;;;8332811;28;20366;-46
2023/03/12 16:12:46;;;;;;;;;;;21.10;32.90;;;;;;8332977;28;20382;-45
2023/03/12 16:16:47;;;;;;;;;;;21.10;32.90;;;;;;8332453;28;19917;-46
2023/03/12 16:20:48;;;;;;;;;;;21.10;32.90;;;;;;8332770;28;19924;-45
2023/03/12 16:24:49;;;;;;;;;;;21.00;32.90;;;;;;8332603;28;20302;-46
2023/03/12 16:28:49;;;;;;;;;;;21.00;32.90;;;;;;8331785;28;19932;-47
2023/03/12 16:32:49;;;;;;;;;;;21.00;32.90;;;;;;8332348;28;19967;-48
2023/03/12 16:36:50;;;;;;;;;;;21.00;32.90;;;;;;8332379;28;19913;-45
2023/03/12 16:40:51;;;;;;;;;;;20.90;33.00;;;;;;8331529;28;19924;-46
2023/03/12 16:44:51;;;;;;;;;;;20.90;33.10;;;;;;8331749;28;19918;-48
2023/03/12 16:48:52;;;;;;;;;;;21.00;33.10;;;;;;8331645;28;20298;-47
2023/03/12 16:52:52;;;;;;;;;;;21.00;33.10;;;;;;8331226;28;20333;-46
2023/03/12 16:56:53;;;;;;;;;;;21.00;33.00;;;;;;8331733;28;19913;-46
2023/03/12 17:00:54;;;;;;;;;;;21.10;33.00;;;;;;8331510;28;20277;-47
2023/03/12 17:04:54;;;;;;;;;;;21.10;33.00;;;;;;8329892;28;20333;-50
2023/03/12 17:08:55;;;;;;;;;;;21.10;32.90;;;;;;8330839;28;19925;-45
2023/03/12 17:12:55;;;;;;;;;;;21.20;32.90;;;;;;8331106;28;19955;-47
2023/03/12 17:16:56;;;;;;;;;;;21.20;32.90;;;;;;8330726;28;19944;-46
2023/03/12 17:20:56;;;;;;;;;;;21.20;32.90;;;;;;8330800;28;19924;-46
2023/03/12 17:24:57;;;;;;;;;;;21.20;32.90;;;;;;8330996;28;19917;-47
2023/03/12 17:28:57;;;;;;;;;;;21.20;32.90;;;;;;8329997;28;19925;-44
2023/03/12 17:33:03;;;;;;;;;;;21.20;32.80;;;;;;8330557;28;19913;-45
2023/03/12 17:37:03;;;;;;;;;;;21.20;33.00;;;;;;8330746;28;19920;-47
2023/03/12 17:41:04;;;;;;;;;;;21.10;33.00;;;;;;8329953;28;19924;-46
2023/03/12 17:45:06;;;;;;;;;;;21.10;33.00;;;;;;8330083;28;19924;-46
2023/03/12 17:49:06;;;;;;;;;;;21.10;33.00;;;;;;8330173;28;20062;-46
2023/03/12 17:53:07;;;;;;;;;;;21.10;33.10;;;;;;8329590;28;20325;-45
2023/03/12 17:57:07;;;;;;;;;;;21.00;33.00;;;;;;8330231;28;19920;-46
2023/03/12 18:01:08;;;;;;;;;;;21.00;33.10;;;;;;8329771;28;19944;-46
2023/03/12 18:05:09;;;;;;;;;;;21.00;33.00;;;;;;8329325;28;19968;-46
2023/03/12 18:09:10;;;;;;;;;;;21.00;33.00;;;;;;8329645;28;19925;-45
2023/03/12 18:13:10;;;;;;;;;;;20.90;33.00;;;;;;8329994;28;19992;-46
2023/03/12 18:17:11;;;;;;;;;;;20.90;33.00;;;;;;8329253;28;19917;-45
2023/03/12 18:21:11;;;;;;;;;;;20.90;33.00;;;;;;8335883;28;19944;-46
2023/03/12 18:25:12;;;;;;;;;;;20.90;33.00;;;;;;8336307;28;19917;-45
2023/03/12 18:29:12;;;;;;;;;;;20.90;33.00;;;;;;8335531;28;19984;-45
2023/03/12 18:33:13;;;;;;;;;;;20.90;33.10;;;;;;8336140;28;19956;-45
2023/03/12 18:37:13;;;;;;;;;;;20.90;33.10;;;;;;8335814;28;19979;-45
2023/03/12 18:41:14;;;;;;;;;;;20.90;33.10;;;;;;8335094;28;19940;-45
2023/03/12 18:45:14;;;;;;;;;;;20.90;33.10;;;;;;8335614;28;19996;-44
2023/03/12 18:49:15;;;;;;;;;;;21.00;33.10;;;;;;8335374;28;19932;-45
2023/03/12 18:53:15;;;;;;;;;;;21.00;33.00;;;;;;8334993;28;20004;-46
2023/03/12 18:57:16;;;;;;;;;;;21.10;33.00;;;;;;8335286;28;20000;-45
2023/03/12 19:01:16;;;;;;;;;;;21.10;33.00;;;;;;8335122;28;19944;-45
2023/03/12 19:05:16;;;;;;;;;;;21.10;33.00;;;;;;8334361;28;19924;-45
2023/03/12 19:09:17;;;;;;;;;;;21.20;33.00;;;;;;8334964;28;20028;-45
2023/03/12 19:13:18;;;;;;;;;;;21.20;33.00;;;;;;8334630;28;19917;-44
2023/03/12 19:17:18;;;;;;;;;;;21.20;33.00;;;;;;8335001;28;20032;-45
2023/03/12 19:21:19;;;;;;;;;;;21.20;33.10;;;;;;8334304;28;19971;-45
2023/03/12 19:25:19;;;;;;;;;;;21.20;33.50;;;;;;8333846;28;20339;-46
2023/03/12 19:29:19;;;;;;;;;;;21.20;33.00;;;;;;8333739;28;20391;-46
2023/03/12 19:33:20;;;;;;;;;;;21.10;32.90;;;;;;8334298;28;19920;-45
2023/03/12 19:37:21;;;;;;;;;;;21.10;33.00;;;;;;8333560;28;19917;-45
2023/03/12 19:41:21;;;;;;;;;;;21.10;33.00;;;;;;8333819;28;19940;-45
2023/03/12 19:45:22;;;;;;;;;;;21.00;33.00;;;;;;8333964;28;19924;-46
2023/03/12 19:49:23;;;;;;;;;;;21.00;33.00;;;;;;8333027;28;19925;-43
2023/03/12 19:53:23;;;;;;;;;;;21.00;33.00;;;;;;8333907;28;19917;-45
2023/03/12 19:57:24;;;;;;;;;;;21.00;33.00;;;;;;8333477;28;19917;-44
2023/03/12 20:01:25;;;;;;;;;;;21.00;33.10;;;;;;8332953;28;19956;-47
2023/03/12 20:05:25;;;;;;;;;;;20.90;33.00;;;;;;8322970;28;20004;-47
2023/03/12 20:09:25;;;;;;;;;;;20.90;33.00;;;;;;8332971;28;20309;-45
2023/03/12 20:13:26;;;;;;;;;;;20.90;33.00;;;;;;8332554;28;19950;-46
2023/03/12 20:17:26;;;;;;;;;;;20.90;33.00;;;;;;8332636;28;20263;-46
2023/03/12 20:21:27;;;;;;;;;;;20.90;33.10;;;;;;8332567;28;19917;-46
2023/03/12 20:25:27;;;;;;;;;;;20.90;33.20;;;;;;8331880;28;19924;-46
2023/03/12 20:29:28;;;;;;;;;;;20.90;33.10;;;;;;8332922;28;20378;-46
2023/03/12 20:33:28;;;;;;;;;;;20.90;33.10;;;;;;8332478;28;20367;-47
2023/03/12 20:37:29;;;;;;;;;;;21.00;33.00;;;;;;8331637;28;19917;-49
2023/03/12 20:41:29;;;;;;;;;;;21.00;33.00;;;;;;8331352;28;19924;-46
2023/03/12 20:45:31;;;;;;;;;;;21.00;33.00;;;;;;8331894;28;19957;-46
2023/03/12 20:49:31;;;;;;;;;;;21.10;32.90;;;;;;8331270;28;20028;-46
2023/03/12 20:53:32;;;;;;;;;;;21.10;32.90;;;;;;8332091;28;20268;-46
2023/03/12 20:57:32;;;;;;;;;;;21.20;32.90;;;;;;8331604;28;19976;-46
2023/03/12 21:01:33;;;;;;;;;;;21.10;32.80;;;;;;8331008;28;19928;-46
2023/03/12 21:05:33;;;;;;;;;;;21.10;32.90;;;;;;8331452;28;20008;-46
2023/03/12 21:09:34;;;;;;;;;;;21.10;32.90;;;;;;8359399;28;20003;-46
2023/03/12 21:13:34;;;;;;;;;;;21.10;32.90;;;;;;8304556;28;20294;-47
2023/03/12 21:17:36;;;;;;;;;;;21.10;32.90;;;;;;8324263;28;19952;-46
2023/03/12 21:21:37;;;;;;;;;;;21.10;32.90;;;;;;8330965;28;19921;-47
2023/03/12 21:25:38;;;;;;;;;;;21.00;33.50;;;;;;8330095;28;19980;-46
2023/03/12 21:29:39;;;;;;;;;;;21.00;33.00;;;;;;8330912;28;20020;-50
2023/03/12 21:33:39;;;;;;;;;;;21.00;32.90;;;;;;8330725;28;19913;-47
2023/03/12 21:37:40;;;;;;;;;;;20.90;32.90;;;;;;8330293;28;20004;-46
2023/03/12 21:41:40;;;;;;;;;;;20.90;32.90;;;;;;8330408;28;20004;-44
2023/03/12 21:45:41;;;;;;;;;;;20.90;32.90;;;;;;8330144;28;19963;-46
2023/03/12 21:49:41;;;;;;;;;;;20.90;32.90;;;;;;8329751;28;19917;-46
2023/03/12 21:53:42;;;;;;;;;;;20.90;32.90;;;;;;8330641;28;19920;-46
2023/03/12 21:57:45;;;;;;;;;;;20.90;32.90;;;;;;8330301;28;20298;-46
2023/03/12 22:01:46;;;;;;;;;;;20.80;32.90;;;;;;8329491;28;20294;-47
2023/03/12 22:05:49;;;;;;;;;;;20.80;32.90;;;;;;8329818;28;19917;-45
2023/03/12 22:09:50;;;;;;;;;;;20.80;32.90;;;;;;8329992;28;20299;-47
2023/03/12 22:13:50;;;;;;;;;;;20.70;32.90;;;;;;8329820;28;19964;-46
2023/03/12 22:17:50;;;;;;;;;;;20.70;32.90;;;;;;8329886;28;20367;-46
2023/03/12 22:21:51;;;;;;;;;;;20.70;33.00;;;;;;8329786;28;19917;-45
2023/03/12 22:25:51;;;;;;;;;;;20.60;32.90;;;;;;8329134;28;20019;-47
2023/03/12 22:29:52;;;;;;;;;;;20.60;33.00;;;;;;8329946;28;19995;-46
2023/03/12 22:33:53;;;;;;;;;;;20.60;32.90;;;;;;8329644;28;20290;-46
2023/03/12 22:37:54;;;;;;;;;;;20.60;33.00;;;;;;8328884;28;19918;-45
2023/03/12 22:41:55;;;;;;;;;;;20.60;33.00;;;;;;8329376;28;20000;-46
2023/03/12 22:45:55;;;;;;;;;;;20.50;33.00;;;;;;8329406;28;19921;-45
2023/03/12 22:49:57;;;;;;;;;;;20.50;33.00;;;;;;8329044;28;19955;-46
2023/03/12 22:53:57;;;;;;;;;;;20.50;33.00;;;;;;8329478;28;19918;-45
2023/03/12 22:57:58;;;;;;;;;;;20.50;33.00;;;;;;8329063;28;20385;-46
2023/03/12 23:01:58;;;;;;;;;;;20.40;33.00;;;;;;8327172;28;20026;-46
2023/03/12 23:05:59;;;;;;;;;;;20.40;33.00;;;;;;8332592;28;19924;-45
2023/03/12 23:10:00;;;;;;;;;;;20.40;33.10;;;;;;8335101;28;20274;-47
2023/03/12 23:14:00;;;;;;;;;;;20.40;33.10;;;;;;8334254;28;19925;-45
2023/03/12 23:18:00;;;;;;;;;;;20.40;33.10;;;;;;8335192;28;20385;-46
2023/03/12 23:22:01;;;;;;;;;;;20.30;33.10;;;;;;8316816;28;19913;-46
2023/03/12 23:26:02;;;;;;;;;;;20.30;33.00;;;;;;8333677;28;19925;-46